Terminal Aerodrome Forecast
Issued by NWS

Home | Current Version | Previous Version | Text Only | Print | Product List | Glossary On
Versions: 1 2 3 4 5 6 7 8 9 10 11 12
000
FTUS45 KGGW 242329
TAFOLF
TAF
KOLF 242329Z 2500/2524 32020G30KT P6SM BKN035 OVC050
     FM250300 33007KT P6SM BKN060
     FM250700 VRB03KT P6SM BKN060
     FM251800 29008KT P6SM SCT060=

USA.gov is the U.S. government's official web portal to all federal, state and local government web resources and services.